createdAt,value
2023-05-04T00:01:47.899Z,6.60
2023-05-04T00:04:17.844Z,6.60
2023-05-04T00:06:47.560Z,6.50
2023-05-04T00:09:19.651Z,6.50
2023-05-04T00:11:47.735Z,6.40
2023-05-04T00:14:18.205Z,6.40
2023-05-04T00:16:46.436Z,6.40
2023-05-04T00:19:19.051Z,6.30
2023-05-04T00:21:49.411Z,6.30
2023-05-04T00:24:23.928Z,6.40
2023-05-04T00:26:53.540Z,6.30
2023-05-04T00:29:22.870Z,6.00
2023-05-04T00:31:53.211Z,5.90
2023-05-04T00:34:22.853Z,5.70
2023-05-04T00:36:52.284Z,5.70
2023-05-04T00:39:20.476Z,5.70
2023-05-04T00:41:49.473Z,5.50
2023-05-04T00:44:19.015Z,5.60
2023-05-04T00:46:47.637Z,5.60
2023-05-04T00:49:15.968Z,5.60
2023-05-04T00:51:44.178Z,5.40
2023-05-04T00:54:17.907Z,5.30
2023-05-04T00:56:47.557Z,5.40
2023-05-04T00:59:17.096Z,5.50
2023-05-04T01:01:46.332Z,5.50
2023-05-04T01:04:16.895Z,5.50
2023-05-04T01:06:56.133Z,5.50
2023-05-04T01:09:31.278Z,5.60
2023-05-04T01:12:05.689Z,5.40
2023-05-04T01:14:37.254Z,5.40
2023-05-04T01:17:07.271Z,5.50
2023-05-04T01:19:37.129Z,5.50
2023-05-04T01:22:08.908Z,5.50
2023-05-04T01:24:39.480Z,5.60
2023-05-04T01:27:16.293Z,5.40
2023-05-04T01:29:50.843Z,5.60
2023-05-04T01:32:21.257Z,5.60
2023-05-04T01:34:49.795Z,5.60
2023-05-04T01:37:20.675Z,5.60
2023-05-04T01:39:48.744Z,5.30
2023-05-04T01:42:16.977Z,5.20
2023-05-04T01:44:45.206Z,5.10
2023-05-04T01:47:13.299Z,5.10
2023-05-04T01:49:42.515Z,5.10
2023-05-04T01:52:10.788Z,5.10
2023-05-04T01:54:41.753Z,5.10
2023-05-04T01:57:09.927Z,5.10
2023-05-04T01:59:38.015Z,5.10
2023-05-04T02:02:08.736Z,5.10
2023-05-04T02:04:37.318Z,5.10
2023-05-04T02:07:06.806Z,5.20
2023-05-04T02:09:36.693Z,5.10
2023-05-04T02:12:08.659Z,5.20
2023-05-04T02:14:39.106Z,5.20
2023-05-04T02:17:10.280Z,5.10
2023-05-04T02:19:38.424Z,5.00
2023-05-04T02:22:09.037Z,4.90
2023-05-04T02:24:37.171Z,4.90
2023-05-04T02:27:07.905Z,4.80
2023-05-04T02:29:36.541Z,4.70
2023-05-04T02:32:05.209Z,4.60
2023-05-04T02:34:35.288Z,4.60
2023-05-04T02:37:07.092Z,4.70
2023-05-04T02:39:35.675Z,4.70
2023-05-04T02:42:05.205Z,4.60
2023-05-04T02:44:34.608Z,4.70
2023-05-04T02:47:03.018Z,4.70
2023-05-04T02:49:31.522Z,4.50
2023-05-04T02:52:01.098Z,4.50
2023-05-04T02:54:30.568Z,4.50
2023-05-04T02:56:58.723Z,4.60
2023-05-04T02:59:30.096Z,4.60
2023-05-04T03:02:00.105Z,4.60
2023-05-04T03:04:28.758Z,4.60
2023-05-04T03:06:57.207Z,4.60
2023-05-04T03:09:25.288Z,4.60
2023-05-04T03:11:53.644Z,4.50
2023-05-04T03:14:21.703Z,4.40
2023-05-04T03:16:49.954Z,4.30
2023-05-04T03:19:21.984Z,4.30
2023-05-04T03:21:51.875Z,4.40
2023-05-04T03:24:20.283Z,4.50
2023-05-04T03:26:50.033Z,4.40
2023-05-04T03:29:18.241Z,4.40
2023-05-04T03:31:49.273Z,4.60
2023-05-04T03:34:30.095Z,4.50
2023-05-04T03:37:01.917Z,4.30
2023-05-04T03:39:30.646Z,4.30
2023-05-04T03:41:58.790Z,4.20
2023-05-04T03:44:28.018Z,4.30
2023-05-04T03:46:57.291Z,4.30
2023-05-04T03:49:29.366Z,4.30
2023-05-04T03:51:57.490Z,4.30
2023-05-04T03:54:28.097Z,4.30
2023-05-04T03:56:57.582Z,4.40
2023-05-04T03:59:26.916Z,4.30
2023-05-04T04:01:56.106Z,4.30
2023-05-04T04:04:27.902Z,4.30
2023-05-04T04:06:57.215Z,4.20
2023-05-04T04:09:40.954Z,4.20
2023-05-04T04:12:09.508Z,4.30
2023-05-04T04:14:39.034Z,4.20
2023-05-04T04:17:07.198Z,4.10
2023-05-04T04:19:36.809Z,4.10
2023-05-04T04:22:06.117Z,4.00
2023-05-04T04:24:35.703Z,4.10
2023-05-04T04:27:06.438Z,4.00
2023-05-04T04:29:41.798Z,4.10
2023-05-04T04:32:11.499Z,4.10
2023-05-04T04:34:39.924Z,4.20
2023-05-04T04:37:18.840Z,4.20
2023-05-04T04:39:51.927Z,4.20
2023-05-04T04:42:24.151Z,4.20
2023-05-04T04:44:52.644Z,4.40
2023-05-04T04:47:21.101Z,4.20
2023-05-04T04:49:51.540Z,4.40
2023-05-04T04:52:20.621Z,4.40
2023-05-04T04:54:57.876Z,4.50
2023-05-04T04:57:27.887Z,4.40
2023-05-04T04:59:57.605Z,4.40
2023-05-04T05:02:28.693Z,4.50
2023-05-04T05:04:58.288Z,4.50
2023-05-04T05:07:34.048Z,4.60
2023-05-04T05:10:12.654Z,4.60
2023-05-04T05:12:51.677Z,4.70
2023-05-04T05:15:22.035Z,4.70
2023-05-04T05:17:57.799Z,4.80
2023-05-04T05:23:33.537Z,5.00
2023-05-04T05:26:06.539Z,4.70
2023-05-04T05:31:56.402Z,5.00
2023-05-04T05:34:41.398Z,5.20
2023-05-04T05:37:59.574Z,5.40
2023-05-04T05:40:44.228Z,5.40
2023-05-04T05:43:53.823Z,5.60
2023-05-04T05:46:25.964Z,5.80
2023-05-04T05:48:54.206Z,5.70
2023-05-04T05:51:33.128Z,5.90
2023-05-04T05:54:02.834Z,6.00
2023-05-04T05:56:35.898Z,6.00
2023-05-04T05:59:21.462Z,6.10
2023-05-04T06:01:51.377Z,6.00
2023-05-04T06:04:19.554Z,6.00
2023-05-04T06:06:48.433Z,5.80
2023-05-04T06:09:17.132Z,6.00
2023-05-04T06:11:49.834Z,6.30
2023-05-04T06:14:28.442Z,6.30
2023-05-04T06:17:00.512Z,6.20
2023-05-04T06:19:31.626Z,6.20
2023-05-04T06:22:09.234Z,6.10
2023-05-04T06:24:46.009Z,6.20
2023-05-04T06:27:15.380Z,6.50
2023-05-04T06:29:48.576Z,6.60
2023-05-04T06:32:37.418Z,6.80
2023-05-04T06:35:06.499Z,7.20
2023-05-04T06:37:42.886Z,7.50
2023-05-04T06:40:13.533Z,7.70
2023-05-04T06:42:46.673Z,7.40
2023-05-04T06:45:16.854Z,7.40
2023-05-04T06:47:44.981Z,8.10
2023-05-04T06:54:11.069Z,8.50
2023-05-04T06:56:43.034Z,9.30
2023-05-04T06:59:16.961Z,10.80
2023-05-04T07:01:47.419Z,11.60
2023-05-04T07:04:16.495Z,12.20
2023-05-04T07:06:44.733Z,11.60
2023-05-04T07:09:14.352Z,11.50
2023-05-04T07:11:44.793Z,11.90
2023-05-04T07:14:20.698Z,12.30
2023-05-04T07:16:54.979Z,12.00
2023-05-04T07:19:23.077Z,12.10
2023-05-04T07:21:53.027Z,12.10
2023-05-04T07:24:21.118Z,12.50
2023-05-04T07:26:52.627Z,13.80
2023-05-04T07:29:28.660Z,13.70
2023-05-04T07:35:12.853Z,14.20
2023-05-04T07:38:03.539Z,15.70
2023-05-04T07:40:34.178Z,15.60
2023-05-04T07:43:05.656Z,16.60
2023-05-04T07:45:38.383Z,17.80
2023-05-04T07:48:31.792Z,17.80
2023-05-04T07:51:00.176Z,18.00
2023-05-04T07:53:44.120Z,17.60
2023-05-04T07:56:20.694Z,17.40
2023-05-04T07:59:15.753Z,17.60
2023-05-04T08:01:44.301Z,17.10
2023-05-04T08:04:15.547Z,17.80
2023-05-04T08:06:51.848Z,18.30
2023-05-04T08:09:22.280Z,20.00
2023-05-04T08:11:51.647Z,19.90
2023-05-04T08:14:21.327Z,20.60
2023-05-04T08:16:50.624Z,20.50
2023-05-04T08:19:21.716Z,21.30
2023-05-04T08:21:50.854Z,22.80
2023-05-04T08:24:20.181Z,18.50
2023-05-04T08:27:03.685Z,19.30
2023-05-04T08:32:13.917Z,20.40
2023-05-04T08:35:36.108Z,20.70
2023-05-04T08:38:16.698Z,21.10
2023-05-04T08:43:51.063Z,22.30
2023-05-04T08:46:23.280Z,23.40
2023-05-04T08:48:51.577Z,22.80
2023-05-04T08:51:47.027Z,21.70
2023-05-04T08:54:20.047Z,22.90
2023-05-04T08:56:54.487Z,21.50
2023-05-04T08:59:23.955Z,21.20
2023-05-04T09:01:57.087Z,22.80
2023-05-04T09:04:29.272Z,22.00
2023-05-04T09:07:01.832Z,23.50
2023-05-04T09:09:36.591Z,22.30
2023-05-04T09:12:06.954Z,21.90
2023-05-04T09:15:00.685Z,22.50
2023-05-04T09:20:16.822Z,21.80
2023-05-04T09:23:07.276Z,21.00
2023-05-04T09:25:35.585Z,19.40
2023-05-04T09:28:05.175Z,20.10
2023-05-04T09:30:43.781Z,20.00
2023-05-04T09:33:14.735Z,18.80
2023-05-04T09:35:47.777Z,18.30
2023-05-04T09:38:38.862Z,17.90
2023-05-04T09:41:17.328Z,17.80
2023-05-04T09:43:59.376Z,18.10
2023-05-04T09:46:27.800Z,18.20
2023-05-04T09:48:56.937Z,17.80
2023-05-04T09:51:27.364Z,17.30
2023-05-04T09:54:02.889Z,17.90
2023-05-04T09:56:57.937Z,17.90
2023-05-04T09:59:44.712Z,18.30
2023-05-04T10:02:26.258Z,18.60
2023-05-04T10:04:59.169Z,18.40
2023-05-04T10:07:35.769Z,18.80
2023-05-04T10:10:07.481Z,18.30
2023-05-04T10:15:45.174Z,18.60
2023-05-04T10:22:01.579Z,18.30
2023-05-04T10:25:05.035Z,18.50
2023-05-04T10:28:01.907Z,18.70
2023-05-04T10:30:33.722Z,19.30
2023-05-04T10:33:05.722Z,18.80
2023-05-04T10:35:38.956Z,19.10
2023-05-04T10:38:08.715Z,18.80
2023-05-04T10:40:39.246Z,19.10
2023-05-04T10:43:11.240Z,19.60
2023-05-04T10:45:41.120Z,19.70
2023-05-04T10:48:09.983Z,19.50
2023-05-04T10:50:46.736Z,19.20
2023-05-04T10:53:16.590Z,19.60
2023-05-04T10:55:46.131Z,19.50
2023-05-04T10:58:24.952Z,19.90
2023-05-04T11:00:53.509Z,19.20
2023-05-04T11:03:22.689Z,19.00
2023-05-04T11:06:35.803Z,19.10
2023-05-04T11:09:28.661Z,19.00
2023-05-04T11:12:00.501Z,19.40
2023-05-04T11:14:44.652Z,19.80
2023-05-04T11:17:51.431Z,19.80
2023-05-04T11:20:49.182Z,19.20
2023-05-04T11:23:49.759Z,19.30
2023-05-04T11:26:20.837Z,19.70
2023-05-04T11:29:23.196Z,19.30
2023-05-04T11:31:57.684Z,19.60
2023-05-04T11:37:40.745Z,19.50
2023-05-04T11:40:18.675Z,20.00
2023-05-04T11:42:48.382Z,20.20
2023-05-04T11:45:41.146Z,19.70
2023-05-04T11:48:37.341Z,19.60
2023-05-04T11:51:30.370Z,20.00
2023-05-04T11:54:29.717Z,20.10
2023-05-04T11:57:06.118Z,20.00
2023-05-04T11:59:34.266Z,19.70
2023-05-04T12:02:05.738Z,19.70
2023-05-04T12:04:36.701Z,20.50
2023-05-04T12:07:34.835Z,20.60
2023-05-04T12:14:24.695Z,19.60
2023-05-04T12:16:58.039Z,20.10
2023-05-04T12:19:26.164Z,20.30
2023-05-04T12:21:57.979Z,20.20
2023-05-04T12:24:29.128Z,20.40
2023-05-04T12:27:02.560Z,20.10
2023-05-04T12:29:32.056Z,19.90
2023-05-04T12:32:00.109Z,19.90
2023-05-04T12:34:28.369Z,20.40
2023-05-04T12:36:57.913Z,20.20
2023-05-04T12:39:37.774Z,20.00
2023-05-04T12:42:08.775Z,19.90
2023-05-04T12:44:40.503Z,20.70
2023-05-04T12:47:52.272Z,20.70
2023-05-04T12:50:24.600Z,20.70
2023-05-04T12:52:56.867Z,20.50
2023-05-04T12:55:26.753Z,20.70
2023-05-04T12:57:56.378Z,21.10
2023-05-04T13:00:26.216Z,20.60
2023-05-04T13:02:54.841Z,21.00
2023-05-04T13:05:24.376Z,21.30
2023-05-04T13:07:53.250Z,20.90
2023-05-04T13:10:44.147Z,21.30
2023-05-04T13:16:20.489Z,21.90
2023-05-04T13:18:50.713Z,21.20
2023-05-04T13:21:26.309Z,20.40
2023-05-04T13:23:54.361Z,20.80
2023-05-04T13:26:22.464Z,20.80
2023-05-04T13:28:52.590Z,21.60
2023-05-04T13:31:23.217Z,20.60
2023-05-04T13:33:51.645Z,20.60
2023-05-04T13:36:21.886Z,21.30
2023-05-04T13:38:59.847Z,21.10
2023-05-04T13:41:33.260Z,20.80
2023-05-04T13:44:02.510Z,20.90
2023-05-04T13:46:31.977Z,21.50
2023-05-04T13:49:03.524Z,21.30
2023-05-04T13:51:56.550Z,21.60
2023-05-04T13:57:39.222Z,21.80
2023-05-04T14:00:15.557Z,21.80
2023-05-04T14:02:49.169Z,22.00
2023-05-04T14:05:20.799Z,21.50
2023-05-04T14:07:51.733Z,21.60
2023-05-04T14:10:24.569Z,22.20
2023-05-04T14:12:52.891Z,20.90
2023-05-04T14:15:23.230Z,21.50
2023-05-04T14:17:52.936Z,21.60
2023-05-04T14:20:28.186Z,21.80
2023-05-04T14:23:00.026Z,21.80
2023-05-04T14:25:29.390Z,21.50
2023-05-04T14:27:58.352Z,21.90
2023-05-04T14:30:30.414Z,22.00
2023-05-04T14:33:07.948Z,22.30
2023-05-04T14:35:40.128Z,21.80
2023-05-04T14:38:09.537Z,21.60
2023-05-04T14:40:42.783Z,21.80
2023-05-04T14:43:12.694Z,21.40
2023-05-04T14:45:49.558Z,21.20
2023-05-04T14:48:48.581Z,21.30
2023-05-04T14:51:29.999Z,21.90
2023-05-04T14:54:08.164Z,21.80
2023-05-04T14:56:36.704Z,22.00
2023-05-04T14:59:06.812Z,21.80
2023-05-04T15:01:38.874Z,22.10
2023-05-04T15:04:13.583Z,22.20
2023-05-04T15:07:05.117Z,21.50
2023-05-04T15:09:47.435Z,21.30
2023-05-04T15:12:15.889Z,21.70
2023-05-04T15:15:12.663Z,21.40
2023-05-04T15:17:46.635Z,21.80
2023-05-04T15:21:01.724Z,21.90
2023-05-04T15:23:39.454Z,21.80
2023-05-04T15:26:10.596Z,22.10
2023-05-04T15:28:38.824Z,21.70
2023-05-04T15:31:09.784Z,21.50
2023-05-04T15:33:39.313Z,21.40
2023-05-04T15:40:53.922Z,21.50
2023-05-04T15:47:13.144Z,21.90
2023-05-04T15:49:45.143Z,21.90
2023-05-04T15:52:34.919Z,21.60
2023-05-04T15:55:16.832Z,21.40
2023-05-04T15:58:00.593Z,21.50
2023-05-04T16:01:08.537Z,21.80
2023-05-04T16:03:55.740Z,21.80
2023-05-04T16:06:27.895Z,21.70
2023-05-04T16:10:01.473Z,21.10
2023-05-04T16:12:37.103Z,21.20
2023-05-04T16:18:50.881Z,21.60
2023-05-04T16:21:37.202Z,21.50
2023-05-04T16:24:07.837Z,21.40
2023-05-04T16:26:37.843Z,21.20
2023-05-04T16:29:06.881Z,21.10
2023-05-04T16:31:54.625Z,21.10
2023-05-04T16:34:22.844Z,20.90
2023-05-04T16:36:51.080Z,20.80
2023-05-04T16:39:23.526Z,20.80
2023-05-04T16:41:58.682Z,20.50
2023-05-04T16:44:32.452Z,20.60
2023-05-04T16:47:18.021Z,20.70
2023-05-04T16:49:52.595Z,20.80
2023-05-04T16:52:28.661Z,20.80
2023-05-04T16:55:11.885Z,20.80
2023-05-04T16:57:45.930Z,20.80
2023-05-04T17:00:24.702Z,20.70
2023-05-04T17:06:03.166Z,20.80
2023-05-04T17:08:43.315Z,20.90
2023-05-04T17:14:36.070Z,20.90
2023-05-04T17:20:53.649Z,20.60
2023-05-04T17:23:27.762Z,20.40
2023-05-04T17:26:01.331Z,20.30
2023-05-04T17:28:31.988Z,20.40
2023-05-04T17:31:13.987Z,20.30
2023-05-04T17:33:42.100Z,20.30
2023-05-04T17:36:19.354Z,20.20
2023-05-04T17:38:52.096Z,20.20
2023-05-04T17:41:26.987Z,20.30
2023-05-04T17:49:38.876Z,20.00
2023-05-04T17:52:12.051Z,19.90
2023-05-04T17:54:44.417Z,19.80
2023-05-04T17:57:52.816Z,19.80
2023-05-04T18:00:36.924Z,19.70
2023-05-04T18:03:07.791Z,19.60
2023-05-04T18:05:59.279Z,19.50
2023-05-04T18:09:27.593Z,19.50
2023-05-04T18:14:54.246Z,19.30
2023-05-04T18:17:24.315Z,19.20
2023-05-04T18:19:53.909Z,19.30
2023-05-04T18:25:16.464Z,19.10
2023-05-04T18:27:51.080Z,19.20
2023-05-04T18:30:21.697Z,19.10
2023-05-04T18:33:17.168Z,19.00
2023-05-04T18:35:55.424Z,18.80
2023-05-04T18:38:26.311Z,18.60
2023-05-04T18:40:56.713Z,18.60
2023-05-04T18:43:28.234Z,18.50
2023-05-04T18:46:25.679Z,18.40
2023-05-04T18:48:58.041Z,18.30
2023-05-04T18:51:29.719Z,18.20
2023-05-04T18:54:03.091Z,18.20
2023-05-04T18:56:33.926Z,18.10
2023-05-04T18:59:14.107Z,18.00
2023-05-04T19:01:42.576Z,17.90
2023-05-04T19:04:11.870Z,17.80
2023-05-04T19:06:40.837Z,17.70
2023-05-04T19:12:02.627Z,17.50
2023-05-04T19:14:33.869Z,17.40
2023-05-04T19:17:07.755Z,17.30
2023-05-04T19:19:40.739Z,17.30
2023-05-04T19:22:15.740Z,17.20
2023-05-04T19:25:34.081Z,17.10
2023-05-04T19:28:09.082Z,16.90
2023-05-04T19:30:42.498Z,16.80
2023-05-04T19:33:10.650Z,16.70
2023-05-04T19:35:39.086Z,16.70
2023-05-04T19:38:12.074Z,16.60
2023-05-04T19:40:42.717Z,16.50
2023-05-04T19:43:35.628Z,16.40
2023-05-04T19:46:05.156Z,16.40
2023-05-04T19:48:34.912Z,16.30
2023-05-04T19:51:04.906Z,16.20
2023-05-04T20:00:00.966Z,16.10
2023-05-04T20:02:32.465Z,16.10
2023-05-04T20:05:00.668Z,16.00
2023-05-04T20:08:04.787Z,16.00
2023-05-04T20:10:33.582Z,15.90
2023-05-04T20:13:01.662Z,15.90
2023-05-04T20:15:29.868Z,15.80
2023-05-04T20:17:59.444Z,15.70
2023-05-04T20:20:27.770Z,15.60
2023-05-04T20:22:59.453Z,15.50
2023-05-04T20:25:31.526Z,15.40
2023-05-04T20:27:59.818Z,15.30
2023-05-04T20:30:30.260Z,15.30
2023-05-04T20:33:00.269Z,15.20
2023-05-04T20:35:29.051Z,15.10
2023-05-04T20:38:03.135Z,15.00
2023-05-04T20:40:32.667Z,14.90
2023-05-04T20:43:01.737Z,14.80
2023-05-04T20:45:31.241Z,14.70
2023-05-04T20:48:01.335Z,14.60
2023-05-04T20:50:32.424Z,14.40
2023-05-04T20:53:03.516Z,14.30
2023-05-04T20:55:39.103Z,14.10
2023-05-04T20:58:07.520Z,14.00
2023-05-04T21:00:36.223Z,13.90
2023-05-04T21:03:05.792Z,13.80
2023-05-04T21:05:43.906Z,13.70
2023-05-04T21:08:15.110Z,13.60
2023-05-04T21:10:43.161Z,13.50
2023-05-04T21:13:12.737Z,13.40
2023-05-04T21:15:41.024Z,13.40
2023-05-04T21:18:15.897Z,13.40
2023-05-04T21:20:44.120Z,13.40
2023-05-04T21:23:12.183Z,13.40
2023-05-04T21:25:40.381Z,13.40
2023-05-04T21:28:09.714Z,13.40
2023-05-04T21:30:41.341Z,13.30
2023-05-04T21:33:09.555Z,13.30
2023-05-04T21:35:39.050Z,13.30
2023-05-04T21:38:17.619Z,13.30
2023-05-04T21:40:51.320Z,13.20
2023-05-04T21:43:26.714Z,13.20
2023-05-04T21:45:55.896Z,13.20
2023-05-04T21:48:26.070Z,13.20
2023-05-04T21:50:55.465Z,13.10
2023-05-04T21:53:23.467Z,13.00
2023-05-04T21:55:51.807Z,12.90
2023-05-04T21:58:19.914Z,12.80
2023-05-04T22:00:50.584Z,12.80
2023-05-04T22:03:23.177Z,12.70
2023-05-04T22:06:03.355Z,12.60
2023-05-04T22:08:31.732Z,12.40
2023-05-04T22:11:11.638Z,12.40
2023-05-04T22:14:14.694Z,12.40
2023-05-04T22:19:12.888Z,12.40
2023-05-04T22:21:42.523Z,12.30
2023-05-04T22:24:10.940Z,12.30
2023-05-04T22:26:41.451Z,12.10
2023-05-04T22:29:09.602Z,12.20
2023-05-04T22:31:37.640Z,12.10
2023-05-04T22:34:05.744Z,12.10
2023-05-04T22:36:33.771Z,12.00
2023-05-04T22:39:03.451Z,11.90
2023-05-04T22:41:31.659Z,11.90
2023-05-04T22:43:59.711Z,11.80
2023-05-04T22:46:27.778Z,11.70
2023-05-04T22:48:55.988Z,11.70
2023-05-04T22:51:24.003Z,11.70
2023-05-04T22:53:52.147Z,11.60
2023-05-04T22:56:21.804Z,11.50
2023-05-04T22:58:49.898Z,11.40
2023-05-04T23:01:18.183Z,11.40
2023-05-04T23:03:46.721Z,11.30
2023-05-04T23:06:15.213Z,11.30
2023-05-04T23:08:43.274Z,11.20
2023-05-04T23:11:11.626Z,11.20
2023-05-04T23:13:41.747Z,11.30
2023-05-04T23:16:09.780Z,11.30
2023-05-04T23:18:38.059Z,11.30
2023-05-04T23:21:06.512Z,11.40
2023-05-04T23:23:34.649Z,11.30
2023-05-04T23:26:02.778Z,11.20
2023-05-04T23:28:30.911Z,11.20
2023-05-04T23:31:00.337Z,11.40
2023-05-04T23:33:28.596Z,11.30
2023-05-04T23:35:56.869Z,11.30
2023-05-04T23:38:24.981Z,11.20
2023-05-04T23:40:53.869Z,11.30
2023-05-04T23:43:23.602Z,11.20
2023-05-04T23:45:51.869Z,11.30
2023-05-04T23:48:21.328Z,11.20
2023-05-04T23:50:57.494Z,11.10
2023-05-04T23:53:26.433Z,11.10
2023-05-04T23:56:03.566Z,11.10
2023-05-04T23:58:33.176Z,11.00
